sensor_id;sensor_type;location;lat;lon;timestamp;pressure;altitude;pressure_sealevel;temperature;humidity
26112;BME280;13829;48.990;8.346;2022-10-16T00:00:43;100212.38;;;16.17;100.00
26112;BME280;13829;48.990;8.346;2022-10-16T00:03:11;100215.03;;;16.17;100.00
26112;BME280;13829;48.990;8.346;2022-10-16T00:05:40;100221.22;;;16.16;100.00
26112;BME280;13829;48.990;8.346;2022-10-16T00:08:11;100218.53;;;16.17;100.00
26112;BME280;13829;48.990;8.346;2022-10-16T00:10:39;100215.72;;;16.25;100.00
26112;BME280;13829;48.990;8.346;2022-10-16T00:13:06;100214.88;;;16.24;100.00
26112;BME280;13829;48.990;8.346;2022-10-16T00:15:35;100216.75;;;16.19;100.00
26112;BME280;13829;48.990;8.346;2022-10-16T00:18:03;100216.75;;;16.19;100.00
26112;BME280;13829;48.990;8.346;2022-10-16T00:20:33;100210.50;;;16.22;100.00
26112;BME280;13829;48.990;8.346;2022-10-16T00:23:02;100209.56;;;16.24;100.00
26112;BME280;13829;48.990;8.346;2022-10-16T00:25:31;100205.19;;;16.22;100.00
26112;BME280;13829;48.990;8.346;2022-10-16T00:27:59;100209.59;;;16.21;100.00
26112;BME280;13829;48.990;8.346;2022-10-16T00:30:26;100205.09;;;16.25;100.00
26112;BME280;13829;48.990;8.346;2022-10-16T00:32:54;100212.25;;;16.21;100.00
26112;BME280;13829;48.990;8.346;2022-10-16T00:35:21;100201.75;;;16.17;100.00
26112;BME280;13829;48.990;8.346;2022-10-16T00:37:48;100215.03;;;16.17;100.00
26112;BME280;13829;48.990;8.346;2022-10-16T00:40:16;100215.94;;;16.16;100.00
26112;BME280;13829;48.990;8.346;2022-10-16T00:42:44;100205.31;;;16.16;100.00
26112;BME280;13829;48.990;8.346;2022-10-16T00:45:11;100212.41;;;16.13;100.00
26112;BME280;13829;48.990;8.346;2022-10-16T00:47:42;100203.50;;;16.18;100.00
26112;BME280;13829;48.990;8.346;2022-10-16T00:50:21;100203.44;;;16.21;100.00
26112;BME280;13829;48.990;8.346;2022-10-16T00:52:51;100209.59;;;16.21;100.00
26112;BME280;13829;48.990;8.346;2022-10-16T00:55:19;100207.88;;;16.19;100.00
26112;BME280;13829;48.990;8.346;2022-10-16T00:57:50;100218.50;;;16.19;100.00
26112;BME280;13829;48.990;8.346;2022-10-16T01:00:21;100226.41;;;16.22;100.00
26112;BME280;13829;48.990;8.346;2022-10-16T01:02:52;100233.41;;;16.26;100.00
26112;BME280;13829;48.990;8.346;2022-10-16T01:05:21;100232.56;;;16.22;100.00
26112;BME280;13829;48.990;8.346;2022-10-16T01:07:56;100237.03;;;16.22;100.00
26112;BME280;13829;48.990;8.346;2022-10-16T01:10:30;100233.34;;;16.27;100.00
26112;BME280;13829;48.990;8.346;2022-10-16T01:13:06;100226.94;;;16.38;100.00
26112;BME280;13829;48.990;8.346;2022-10-16T01:15:37;100235.78;;;16.38;100.00
26112;BME280;13829;48.990;8.346;2022-10-16T01:18:13;100235.19;;;16.25;100.00
26112;BME280;13829;48.990;8.346;2022-10-16T01:20:50;100238.81;;;16.20;100.00
26112;BME280;13829;48.990;8.346;2022-10-16T01:23:30;100233.59;;;16.17;100.00
26112;BME280;13829;48.990;8.346;2022-10-16T01:26:17;100242.34;;;16.22;100.00
26112;BME280;13829;48.990;8.346;2022-10-16T01:28:53;100232.44;;;16.28;100.00
26112;BME280;13829;48.990;8.346;2022-10-16T01:31:25;100228.91;;;16.29;100.00
26112;BME280;13829;48.990;8.346;2022-10-16T01:34:00;100232.38;;;16.33;100.00
26112;BME280;13829;48.990;8.346;2022-10-16T01:36:35;100219.97;;;16.34;100.00
26112;BME280;13829;48.990;8.346;2022-10-16T01:39:04;100218.16;;;16.36;100.00
26112;BME280;13829;48.990;8.346;2022-10-16T01:41:38;100214.34;;;16.47;100.00
26112;BME280;13829;48.990;8.346;2022-10-16T01:44:10;100216.50;;;16.30;100.00
26112;BME280;13829;48.990;8.346;2022-10-16T01:46:43;100212.13;;;16.29;100.00
26112;BME280;13829;48.990;8.346;2022-10-16T01:49:13;100212.28;;;16.20;100.00
26112;BME280;13829;48.990;8.346;2022-10-16T01:51:41;100211.22;;;16.28;100.00
26112;BME280;13829;48.990;8.346;2022-10-16T01:54:14;100215.03;;;16.17;100.00
26112;BME280;13829;48.990;8.346;2022-10-16T01:56:43;100222.22;;;16.11;100.00
26112;BME280;13829;48.990;8.346;2022-10-16T01:59:16;100217.00;;;16.07;100.00
26112;BME280;13829;48.990;8.346;2022-10-16T02:01:49;100214.25;;;16.11;100.00
26112;BME280;13829;48.990;8.346;2022-10-16T02:04:24;100215.25;;;16.06;100.00
26112;BME280;13829;48.990;8.346;2022-10-16T02:06:53;100222.38;;;16.02;100.00
26112;BME280;13829;48.990;8.346;2022-10-16T02:09:21;100225.06;;;16.01;100.00
26112;BME280;13829;48.990;8.346;2022-10-16T02:11:51;100228.75;;;15.95;100.00
26112;BME280;13829;48.990;8.346;2022-10-16T02:14:21;100236.69;;;15.93;100.00
26112;BME280;13829;48.990;8.346;2022-10-16T02:16:50;100247.38;;;15.90;100.00
26112;BME280;13829;48.990;8.346;2022-10-16T02:19:20;100242.00;;;15.93;100.00
26112;BME280;13829;48.990;8.346;2022-10-16T02:21:54;100242.94;;;15.91;100.00
26112;BME280;13829;48.990;8.346;2022-10-16T02:24:33;100241.06;;;15.96;100.00
26112;BME280;13829;48.990;8.346;2022-10-16T02:27:10;100243.88;;;15.88;100.00
26112;BME280;13829;48.990;8.346;2022-10-16T02:29:43;100246.53;;;15.90;100.00
26112;BME280;13829;48.990;8.346;2022-10-16T02:32:19;100251.88;;;15.87;100.00
26112;BME280;13829;48.990;8.346;2022-10-16T02:34:49;100243.16;;;15.78;100.00
26112;BME280;13829;48.990;8.346;2022-10-16T02:37:18;100243.16;;;15.78;100.00
26112;BME280;13829;48.990;8.346;2022-10-16T02:39:45;100243.16;;;15.78;100.00
26112;BME280;13829;48.990;8.346;2022-10-16T02:42:12;100243.28;;;15.72;100.00
26112;BME280;13829;48.990;8.346;2022-10-16T02:44:41;100226.47;;;15.73;100.00
26112;BME280;13829;48.990;8.346;2022-10-16T02:47:08;100241.44;;;15.74;100.00
26112;BME280;13829;48.990;8.346;2022-10-16T02:49:35;100236.22;;;15.71;100.00
26112;BME280;13829;48.990;8.346;2022-10-16T02:52:02;100239.84;;;15.67;100.00
26112;BME280;13829;48.990;8.346;2022-10-16T02:54:29;100246.94;;;15.65;100.00
26112;BME280;13829;48.990;8.346;2022-10-16T02:56:56;100253.09;;;15.65;100.00
26112;BME280;13829;48.990;8.346;2022-10-16T02:59:23;100260.22;;;15.63;100.00
26112;BME280;13829;48.990;8.346;2022-10-16T03:01:51;100261.94;;;15.66;100.00
26112;BME280;13829;48.990;8.346;2022-10-16T03:04:18;100261.09;;;15.64;100.00
26112;BME280;13829;48.990;8.346;2022-10-16T03:06:45;100266.34;;;15.67;100.00
26112;BME280;13829;48.990;8.346;2022-10-16T03:09:12;100268.06;;;15.68;100.00
26112;BME280;13829;48.990;8.346;2022-10-16T03:11:39;100270.75;;;15.66;100.00
26112;BME280;13829;48.990;8.346;2022-10-16T03:14:06;100261.16;;;15.61;100.00
26112;BME280;13829;48.990;8.346;2022-10-16T03:16:33;100266.41;;;15.64;100.00
26112;BME280;13829;48.990;8.346;2022-10-16T03:19:01;100253.94;;;15.69;100.00
26112;BME280;13829;48.990;8.346;2022-10-16T03:21:28;100260.19;;;15.65;100.00
26112;BME280;13829;48.990;8.346;2022-10-16T03:23:55;100250.50;;;15.64;100.00
26112;BME280;13829;48.990;8.346;2022-10-16T03:26:22;100245.25;;;15.61;100.00
26112;BME280;13829;48.990;8.346;2022-10-16T03:28:49;100251.53;;;15.57;100.00
26112;BME280;13829;48.990;8.346;2022-10-16T03:31:16;100260.38;;;15.56;100.00
26112;BME280;13829;48.990;8.346;2022-10-16T03:33:43;100262.13;;;15.55;100.00
26112;BME280;13829;48.990;8.346;2022-10-16T03:36:11;100259.47;;;15.57;100.00
26112;BME280;13829;48.990;8.346;2022-10-16T03:38:38;100267.31;;;15.61;100.00
26112;BME280;13829;48.990;8.346;2022-10-16T03:41:05;100273.44;;;15.65;100.00
26112;BME280;13829;48.990;8.346;2022-10-16T03:43:33;100272.63;;;15.61;100.00
26112;BME280;13829;48.990;8.346;2022-10-16T03:46:00;100271.69;;;15.64;100.00
26112;BME280;13829;48.990;8.346;2022-10-16T03:48:27;100265.56;;;15.60;100.00
26112;BME280;13829;48.990;8.346;2022-10-16T03:50:54;100260.31;;;15.59;100.00
26112;BME280;13829;48.990;8.346;2022-10-16T03:53:22;100259.34;;;15.63;100.00
26112;BME280;13829;48.990;8.346;2022-10-16T03:55:49;100253.13;;;15.64;100.00
26112;BME280;13829;48.990;8.346;2022-10-16T03:58:16;100260.28;;;15.62;100.00
26112;BME280;13829;48.990;8.346;2022-10-16T04:00:45;100265.69;;;15.56;100.00
26112;BME280;13829;48.990;8.346;2022-10-16T04:03:13;100267.47;;;15.54;100.00
26112;BME280;13829;48.990;8.346;2022-10-16T04:05:40;100270.97;;;15.56;100.00
26112;BME280;13829;48.990;8.346;2022-10-16T04:10:42;100267.28;;;15.63;100.00
26112;BME280;13829;48.990;8.346;2022-10-16T04:13:09;100270.72;;;15.70;100.00
26112;BME280;13829;48.990;8.346;2022-10-16T04:15:36;100271.66;;;15.67;100.00
26112;BME280;13829;48.990;8.346;2022-10-16T04:18:04;100267.28;;;15.63;100.00
26112;BME280;13829;48.990;8.346;2022-10-16T04:20:31;100276.97;;;15.67;100.00
26112;BME280;13829;48.990;8.346;2022-10-16T04:22:58;100278.66;;;15.71;100.00
26112;BME280;13829;48.990;8.346;2022-10-16T04:25:25;100283.94;;;15.71;100.00
26112;BME280;13829;48.990;8.346;2022-10-16T04:27:54;100290.09;;;15.73;100.00
26112;BME280;13829;48.990;8.346;2022-10-16T04:30:22;100295.41;;;15.73;100.00
26112;BME280;13829;48.990;8.346;2022-10-16T04:32:49;100295.34;;;15.76;100.00
26112;BME280;13829;48.990;8.346;2022-10-16T04:35:17;100299.69;;;15.84;100.00
26112;BME280;13829;48.990;8.346;2022-10-16T04:37:44;100302.34;;;15.80;100.00
26112;BME280;13829;48.990;8.346;2022-10-16T04:40:11;100303.28;;;15.76;100.00
26112;BME280;13829;48.990;8.346;2022-10-16T04:42:39;100304.97;;;15.80;100.00
26112;BME280;13829;48.990;8.346;2022-10-16T04:45:08;100310.28;;;15.84;100.00
26112;BME280;13829;48.990;8.346;2022-10-16T04:47:35;100311.19;;;15.81;100.00
26112;BME280;13829;48.990;8.346;2022-10-16T04:50:03;100306.72;;;15.83;100.00
26112;BME280;13829;48.990;8.346;2022-10-16T04:52:30;100295.28;;;15.81;100.00
26112;BME280;13829;48.990;8.346;2022-10-16T04:54:57;100304.09;;;15.83;100.00
26112;BME280;13829;48.990;8.346;2022-10-16T04:57:27;100300.66;;;15.76;100.00
26112;BME280;13829;48.990;8.346;2022-10-16T04:59:55;100310.38;;;15.74;100.00
26112;BME280;13829;48.990;8.346;2022-10-16T05:02:23;100307.78;;;15.73;100.00
26112;BME280;13829;48.990;8.346;2022-10-16T05:04:51;100313.06;;;15.73;100.00
26112;BME280;13829;48.990;8.346;2022-10-16T05:07:17;100318.38;;;15.73;100.00
26112;BME280;13829;48.990;8.346;2022-10-16T05:09:44;100311.31;;;15.72;100.00
26112;BME280;13829;48.990;8.346;2022-10-16T05:12:11;100306.94;;;15.69;100.00
26112;BME280;13829;48.990;8.346;2022-10-16T05:14:38;100312.22;;;15.72;100.00
26112;BME280;13829;48.990;8.346;2022-10-16T05:17:06;100309.56;;;15.72;100.00
26112;BME280;13829;48.990;8.346;2022-10-16T05:19:34;100312.31;;;15.66;100.00
26112;BME280;13829;48.990;8.346;2022-10-16T05:22:01;100317.66;;;15.63;100.00
26112;BME280;13829;48.990;8.346;2022-10-16T05:24:28;100319.47;;;15.61;100.00
26112;BME280;13829;48.990;8.346;2022-10-16T05:26:55;100324.69;;;15.67;100.00
26112;BME280;13829;48.990;8.346;2022-10-16T05:29:23;100321.19;;;15.63;100.00
26112;BME280;13829;48.990;8.346;2022-10-16T05:31:51;100324.72;;;15.64;100.00
26112;BME280;13829;48.990;8.346;2022-10-16T05:34:18;100314.19;;;15.61;100.00
26112;BME280;13829;48.990;8.346;2022-10-16T05:36:47;100323.94;;;15.59;100.00
26112;BME280;13829;48.990;8.346;2022-10-16T05:39:15;100328.41;;;15.57;100.00
26112;BME280;13829;48.990;8.346;2022-10-16T05:41:42;100332.78;;;15.58;100.00
26112;BME280;13829;48.990;8.346;2022-10-16T05:44:10;100331.91;;;15.57;100.00
26112;BME280;13829;48.990;8.346;2022-10-16T05:46:37;100333.63;;;15.60;100.00
26112;BME280;13829;48.990;8.346;2022-10-16T05:49:04;100343.31;;;15.62;100.00
26112;BME280;13829;48.990;8.346;2022-10-16T05:51:31;100329.03;;;15.71;100.00
26112;BME280;13829;48.990;8.346;2022-10-16T05:53:59;100313.94;;;15.75;100.00
26112;BME280;13829;48.990;8.346;2022-10-16T05:56:26;100318.31;;;15.77;100.00
26112;BME280;13829;48.990;8.346;2022-10-16T05:58:53;100322.81;;;15.72;100.00
26112;BME280;13829;48.990;8.346;2022-10-16T06:01:20;100324.44;;;15.79;100.00
26112;BME280;13829;48.990;8.346;2022-10-16T06:03:50;100325.94;;;15.96;100.00
26112;BME280;13829;48.990;8.346;2022-10-16T06:06:19;100332.25;;;15.90;100.00
26112;BME280;13829;48.990;8.346;2022-10-16T06:08:47;100340.25;;;15.89;100.00
26112;BME280;13829;48.990;8.346;2022-10-16T06:11:19;100355.38;;;15.80;100.00
26112;BME280;13829;48.990;8.346;2022-10-16T06:13:50;100350.06;;;15.82;100.00
26112;BME280;13829;48.990;8.346;2022-10-16T06:16:18;100347.41;;;15.84;100.00
26112;BME280;13829;48.990;8.346;2022-10-16T06:18:47;100335.63;;;15.98;100.00
26112;BME280;13829;48.990;8.346;2022-10-16T06:21:17;100327.47;;;16.09;100.00
26112;BME280;13829;48.990;8.346;2022-10-16T06:23:45;100339.06;;;16.05;100.00
26112;BME280;13829;48.990;8.346;2022-10-16T06:26:17;100349.81;;;15.96;100.00
26112;BME280;13829;48.990;8.346;2022-10-16T06:28:45;100352.09;;;16.18;100.00
26112;BME280;13829;48.990;8.346;2022-10-16T06:31:13;100343.09;;;16.25;100.00
26112;BME280;13829;48.990;8.346;2022-10-16T06:33:40;100355.28;;;16.35;100.00
26112;BME280;13829;48.990;8.346;2022-10-16T06:36:10;100357.09;;;16.33;100.00
26112;BME280;13829;48.990;8.346;2022-10-16T06:38:38;100356.91;;;16.42;100.00
26112;BME280;13829;48.990;8.346;2022-10-16T06:41:07;100362.09;;;16.49;100.00
26112;BME280;13829;48.990;8.346;2022-10-16T06:43:35;100363.84;;;16.50;100.00
26112;BME280;13829;48.990;8.346;2022-10-16T06:46:05;100362.09;;;16.49;100.00
26112;BME280;13829;48.990;8.346;2022-10-16T06:48:33;100353.94;;;16.58;100.00
26112;BME280;13829;48.990;8.346;2022-10-16T06:51:03;100345.19;;;16.53;100.00
26112;BME280;13829;48.990;8.346;2022-10-16T06:53:35;100357.59;;;16.52;100.00
26112;BME280;13829;48.990;8.346;2022-10-16T06:56:08;100359.28;;;16.56;100.00
26112;BME280;13829;48.990;8.346;2022-10-16T06:58:36;100358.31;;;16.62;100.00
26112;BME280;13829;48.990;8.346;2022-10-16T07:01:05;100363.59;;;16.62;100.00
26112;BME280;13829;48.990;8.346;2022-10-16T07:03:33;100361.56;;;16.75;100.00
26112;BME280;13829;48.990;8.346;2022-10-16T07:06:02;100365.22;;;16.69;100.00
26112;BME280;13829;48.990;8.346;2022-10-16T07:08:31;100367.88;;;16.69;100.00
26112;BME280;13829;48.990;8.346;2022-10-16T07:11:00;100376.59;;;16.74;100.00
26112;BME280;13829;48.990;8.346;2022-10-16T07:13:28;100378.19;;;16.85;100.00
26112;BME280;13829;48.990;8.346;2022-10-16T07:15:56;100375.22;;;17.00;100.00
26112;BME280;13829;48.990;8.346;2022-10-16T07:18:23;100389.19;;;17.08;100.00
26112;BME280;13829;48.990;8.346;2022-10-16T07:20:52;100387.31;;;17.14;100.00
26112;BME280;13829;48.990;8.346;2022-10-16T07:23:20;100389.47;;;17.35;100.00
26112;BME280;13829;48.990;8.346;2022-10-16T07:25:54;100393.28;;;17.63;100.00
26112;BME280;13829;48.990;8.346;2022-10-16T07:28:21;100403.66;;;17.73;100.00
26112;BME280;13829;48.990;8.346;2022-10-16T07:30:48;100409.75;;;17.77;100.00
26112;BME280;13829;48.990;8.346;2022-10-16T07:33:17;100417.72;;;17.79;100.00
26112;BME280;13829;48.990;8.346;2022-10-16T07:35:51;100414.34;;;17.70;100.00
26112;BME280;13829;48.990;8.346;2022-10-16T07:38:21;100414.50;;;17.64;100.00
26112;BME280;13829;48.990;8.346;2022-10-16T07:40:56;100415.56;;;17.57;100.00
26112;BME280;13829;48.990;8.346;2022-10-16T07:43:23;100427.13;;;17.56;100.00
26112;BME280;13829;48.990;8.346;2022-10-16T07:45:50;100433.34;;;17.55;100.00
26112;BME280;13829;48.990;8.346;2022-10-16T07:48:19;100437.66;;;17.59;100.00
26112;BME280;13829;48.990;8.346;2022-10-16T07:50:46;100442.00;;;17.65;100.00
26112;BME280;13829;48.990;8.346;2022-10-16T07:53:14;100442.75;;;17.70;100.00
26112;BME280;13829;48.990;8.346;2022-10-16T07:55:41;100449.63;;;17.79;100.00
26112;BME280;13829;48.990;8.346;2022-10-16T07:58:08;100456.69;;;17.80;100.00
26112;BME280;13829;48.990;8.346;2022-10-16T08:00:36;100455.91;;;17.74;100.00
26112;BME280;13829;48.990;8.346;2022-10-16T08:03:04;100455.91;;;17.74;100.00
26112;BME280;13829;48.990;8.346;2022-10-16T08:05:33;100449.53;;;17.82;100.00
26112;BME280;13829;48.990;8.346;2022-10-16T08:08:02;100445.88;;;17.86;100.00
26112;BME280;13829;48.990;8.346;2022-10-16T08:10:29;100448.44;;;17.90;100.00
26112;BME280;13829;48.990;8.346;2022-10-16T08:12:57;100446.59;;;17.96;100.00
26112;BME280;13829;48.990;8.346;2022-10-16T08:15:25;100446.34;;;18.05;100.00
26112;BME280;13829;48.990;8.346;2022-10-16T08:17:57;100438.91;;;18.19;100.00
26112;BME280;13829;48.990;8.346;2022-10-16T08:20:24;100435.94;;;18.30;100.00
26112;BME280;13829;48.990;8.346;2022-10-16T08:22:53;100433.09;;;18.36;100.00
26112;BME280;13829;48.990;8.346;2022-10-16T08:25:20;100433.94;;;18.38;100.00
26112;BME280;13829;48.990;8.346;2022-10-16T08:27:47;100451.69;;;18.39;100.00
26112;BME280;13829;48.990;8.346;2022-10-16T08:30:15;100456.91;;;18.42;100.00
26112;BME280;13829;48.990;8.346;2022-10-16T08:32:43;100460.56;;;18.38;100.00
26112;BME280;13829;48.990;8.346;2022-10-16T08:35:10;100472.81;;;18.46;100.00
26112;BME280;13829;48.990;8.346;2022-10-16T08:37:38;100479.66;;;18.56;100.00
26112;BME280;13829;48.990;8.346;2022-10-16T08:40:17;100481.13;;;18.66;100.00
26112;BME280;13829;48.990;8.346;2022-10-16T08:43:08;100479.22;;;18.71;100.00
26112;BME280;13829;48.990;8.346;2022-10-16T08:46:02;100480.72;;;18.82;100.00
26112;BME280;13829;48.990;8.346;2022-10-16T08:48:43;100490.50;;;18.81;100.00
26112;BME280;13829;48.990;8.346;2022-10-16T08:51:18;100498.44;;;18.83;100.00
26112;BME280;13829;48.990;8.346;2022-10-16T08:53:52;100502.53;;;18.96;100.00
26112;BME280;13829;48.990;8.346;2022-10-16T08:56:21;100501.28;;;19.10;100.00
26112;BME280;13829;48.990;8.346;2022-10-16T08:58:49;100494.63;;;19.25;100.00
26112;BME280;13829;48.990;8.346;2022-10-16T09:01:21;100504.34;;;19.27;100.00
26112;BME280;13829;48.990;8.346;2022-10-16T09:04:14;100500.34;;;19.40;100.00
26112;BME280;13829;48.990;8.346;2022-10-16T09:06:54;100507.03;;;19.55;100.00
26112;BME280;13829;48.990;8.346;2022-10-16T09:09:41;100512.03;;;19.66;100.00
26112;BME280;13829;48.990;8.346;2022-10-16T09:12:21;100524.34;;;19.70;100.00
26112;BME280;13829;48.990;8.346;2022-10-16T09:15:02;100523.50;;;19.70;100.00
26112;BME280;13829;48.990;8.346;2022-10-16T09:17:44;100530.78;;;19.65;100.00
26112;BME280;13829;48.990;8.346;2022-10-16T09:20:27;100536.34;;;19.57;100.00
26112;BME280;13829;48.990;8.346;2022-10-16T09:23:12;100544.38;;;19.55;100.00
26112;BME280;13829;48.990;8.346;2022-10-16T09:25:45;100537.53;;;19.47;100.00
26112;BME280;13829;48.990;8.346;2022-10-16T09:28:16;100542.28;;;19.37;100.00
26112;BME280;13829;48.990;8.346;2022-10-16T09:30:45;100550.69;;;19.23;100.00
26112;BME280;13829;48.990;8.346;2022-10-16T09:33:16;100556.25;;;19.14;100.00
26112;BME280;13829;48.990;8.346;2022-10-16T09:35:45;100550.22;;;19.07;100.00
26112;BME280;13829;48.990;8.346;2022-10-16T09:38:26;100561.75;;;19.07;100.00
26112;BME280;13829;48.990;8.346;2022-10-16T09:40:55;100560.56;;;19.19;100.00
26112;BME280;13829;48.990;8.346;2022-10-16T09:43:28;100557.38;;;19.36;100.00
26112;BME280;13829;48.990;8.346;2022-10-16T09:46:03;100558.59;;;19.56;100.00
26112;BME280;13829;48.990;8.346;2022-10-16T09:48:37;100556.25;;;19.75;100.00
26112;BME280;13829;48.990;8.346;2022-10-16T09:51:13;100560.88;;;19.98;100.00
26112;BME280;13829;48.990;8.346;2022-10-16T09:53:44;100556.03;;;20.11;100.00
26112;BME280;13829;48.990;8.346;2022-10-16T09:56:22;100552.56;;;20.09;100.00
26112;BME280;13829;48.990;8.346;2022-10-16T09:58:53;100563.66;;;20.24;100.00
26112;BME280;13829;48.990;8.346;2022-10-16T10:01:24;100561.84;;;20.24;100.00
26112;BME280;13829;48.990;8.346;2022-10-16T10:03:57;100571.78;;;20.20;100.00
26112;BME280;13829;48.990;8.346;2022-10-16T10:06:32;100571.06;;;20.14;100.00
26112;BME280;13829;48.990;8.346;2022-10-16T10:09:14;100583.66;;;20.10;100.00
26112;BME280;13829;48.990;8.346;2022-10-16T10:11:47;100584.91;;;19.98;100.00
26112;BME280;13829;48.990;8.346;2022-10-16T10:14:26;100579.94;;;19.86;100.00
26112;BME280;13829;48.990;8.346;2022-10-16T10:17:10;100579.25;;;19.79;100.00
26112;BME280;13829;48.990;8.346;2022-10-16T10:19:40;100580.22;;;19.77;100.00
26112;BME280;13829;48.990;8.346;2022-10-16T10:22:29;100580.53;;;19.66;100.00
26112;BME280;13829;48.990;8.346;2022-10-16T10:25:19;100592.16;;;19.63;100.00
26112;BME280;13829;48.990;8.346;2022-10-16T10:28:17;100591.00;;;19.74;100.00
26112;BME280;13829;48.990;8.346;2022-10-16T10:31:00;100588.41;;;19.70;100.00
26112;BME280;13829;48.990;8.346;2022-10-16T10:33:42;100585.72;;;19.70;100.00
26112;BME280;13829;48.990;8.346;2022-10-16T10:36:25;100592.25;;;19.60;100.00
26112;BME280;13829;48.990;8.346;2022-10-16T10:38:58;100577.22;;;19.58;100.00
26112;BME280;13829;48.990;8.346;2022-10-16T10:42:16;100574.56;;;19.58;100.00
26112;BME280;13829;48.990;8.346;2022-10-16T10:48:19;100576.16;;;19.63;100.00
26112;BME280;13829;48.990;8.346;2022-10-16T10:50:52;100587.84;;;19.59;100.00
26112;BME280;13829;48.990;8.346;2022-10-16T10:53:36;100590.22;;;19.68;100.00
26112;BME280;13829;48.990;8.346;2022-10-16T10:56:22;100595.31;;;19.78;100.00
26112;BME280;13829;48.990;8.346;2022-10-16T10:59:14;100595.72;;;19.94;100.00
26112;BME280;13829;48.990;8.346;2022-10-16T11:01:53;100575.25;;;20.23;100.00
26112;BME280;13829;48.990;8.346;2022-10-16T11:05:02;100584.25;;;20.47;100.00
26112;BME280;13829;48.990;8.346;2022-10-16T11:07:40;100578.28;;;20.65;100.00
26112;BME280;13829;48.990;8.346;2022-10-16T11:10:17;100580.47;;;20.81;100.00
26112;BME280;13829;48.990;8.346;2022-10-16T11:12:52;100573.91;;;20.90;100.00
26112;BME280;13829;48.990;8.346;2022-10-16T11:15:25;100582.38;;;21.02;100.00
26112;BME280;13829;48.990;8.346;2022-10-16T11:18:00;100579.97;;;21.20;100.00
26112;BME280;13829;48.990;8.346;2022-10-16T11:20:34;100577.00;;;21.28;100.00
26112;BME280;13829;48.990;8.346;2022-10-16T11:23:10;100570.22;;;21.43;100.00
26112;BME280;13829;48.990;8.346;2022-10-16T11:25:42;100567.97;;;21.56;100.00
26112;BME280;13829;48.990;8.346;2022-10-16T11:28:14;100573.03;;;21.63;100.00
26112;BME280;13829;48.990;8.346;2022-10-16T11:30:49;100555.94;;;21.67;100.00
26112;BME280;13829;48.990;8.346;2022-10-16T11:33:28;100552.97;;;21.75;100.00
26112;BME280;13829;48.990;8.346;2022-10-16T11:36:06;100552.53;;;21.86;100.00
26112;BME280;13829;48.990;8.346;2022-10-16T11:38:43;100555.78;;;21.94;100.00
26112;BME280;13829;48.990;8.346;2022-10-16T11:41:20;100557.16;;;22.05;100.00
26112;BME280;13829;48.990;8.346;2022-10-16T11:44:00;100554.09;;;22.14;100.00
26112;BME280;13829;48.990;8.346;2022-10-16T11:46:36;100552.41;;;22.11;100.00
26112;BME280;13829;48.990;8.346;2022-10-16T11:49:13;100556.66;;;22.17;100.00
26112;BME280;13829;48.990;8.346;2022-10-16T11:51:51;100556.53;;;22.20;98.89
26112;BME280;13829;48.990;8.346;2022-10-16T11:54:31;100562.13;;;22.14;100.00
26112;BME280;13829;48.990;8.346;2022-10-16T11:57:10;100553.91;;;22.19;100.00
26112;BME280;13829;48.990;8.346;2022-10-16T11:59:46;100551.97;;;22.22;100.00
26112;BME280;13829;48.990;8.346;2022-10-16T12:02:30;100555.72;;;22.18;100.00
26112;BME280;13829;48.990;8.346;2022-10-16T12:05:18;100567.63;;;22.11;100.00
26112;BME280;13829;48.990;8.346;2022-10-16T12:07:59;100555.28;;;22.07;100.00
26112;BME280;13829;48.990;8.346;2022-10-16T12:10:31;100552.31;;;22.14;100.00
26112;BME280;13829;48.990;8.346;2022-10-16T12:13:03;100553.06;;;22.18;100.00
26112;BME280;13829;48.990;8.346;2022-10-16T12:15:33;100547.81;;;22.15;100.00
26112;BME280;13829;48.990;8.346;2022-10-16T12:18:00;100555.34;;;22.27;98.90
26112;BME280;13829;48.990;8.346;2022-10-16T12:20:30;100552.78;;;22.24;98.06
26112;BME280;13829;48.990;8.346;2022-10-16T12:23:01;100551.06;;;22.23;99.44
26112;BME280;13829;48.990;8.346;2022-10-16T12:25:31;100547.69;;;22.18;100.00
26112;BME280;13829;48.990;8.346;2022-10-16T12:28:02;100543.63;;;22.08;99.77
26112;BME280;13829;48.990;8.346;2022-10-16T12:30:33;100545.13;;;21.93;100.00
26112;BME280;13829;48.990;8.346;2022-10-16T12:33:03;100547.31;;;21.83;100.00
26112;BME280;13829;48.990;8.346;2022-10-16T12:35:35;100543.19;;;21.74;100.00
26112;BME280;13829;48.990;8.346;2022-10-16T12:38:18;100546.16;;;21.66;100.00
26112;BME280;13829;48.990;8.346;2022-10-16T12:40:55;100548.78;;;21.68;100.00
26112;BME280;13829;48.990;8.346;2022-10-16T12:43:38;100546.84;;;21.72;100.00
26112;BME280;13829;48.990;8.346;2022-10-16T12:46:37;100546.72;;;21.75;98.80
26112;BME280;13829;48.990;8.346;2022-10-16T12:49:21;100553.03;;;21.74;97.99
26112;BME280;13829;48.990;8.346;2022-10-16T12:51:50;100551.16;;;21.76;98.56
26112;BME280;13829;48.990;8.346;2022-10-16T12:54:22;100558.31;;;21.75;98.59
26112;BME280;13829;48.990;8.346;2022-10-16T12:57:06;100550.28;;;21.75;99.19
26112;BME280;13829;48.990;8.346;2022-10-16T12:59:48;100556.50;;;21.76;100.00
26112;BME280;13829;48.990;8.346;2022-10-16T13:02:58;100556.13;;;21.63;99.30
26112;BME280;13829;48.990;8.346;2022-10-16T13:05:44;100560.91;;;21.53;100.00
26112;BME280;13829;48.990;8.346;2022-10-16T13:08:38;100562.31;;;21.40;100.00
26112;BME280;13829;48.990;8.346;2022-10-16T13:11:21;100559.97;;;21.30;100.00